Terminal Aerodrome Forecast
Issued by NWS Sioux Falls, SD

Home | Current Version | Previous Version | Graphics & Text | Print | Product List | Glossary Off
Versions: 1 2 3 4 5 6 7 8 9 10 11 12 13 14 15

000
FTUS43 KFSD 111120
TAFFSD
TAF
KFSD 111120Z 1112/1212 30017G29KT P6SM BKN200
     FM111500 31021G32KT P6SM OVC020
     FM111800 34023G35KT P6SM OVC020
     FM112300 34019G29KT P6SM BKN045
     FM120000 34017G28KT P6SM SCT060
     FM120300 34013KT P6SM FEW120=

USA.gov is the U.S. government's official web portal to all federal, state and local government web resources and services.